Latest Weather Observations for Nuriootpa

IDS60801

Issued at 6:34 pm CDT Wednesday 4 March 2015 (issued every 30 minutes, with the page automatically refreshed every 10 minutes)

About weather observations | Map of weather stations | Latest weather observations for SA | Other Formats
Station Details ID: 023373 Name: NURIOOTPA VITICULTURAL Lat: -34.48 Lon: 139.01 Height: 275.0 m
Data from the previous 72 hours. | See also: Recent months at Nuriootpa
Date/Time
CDT
Temp
°C
App
Temp
°C
Dew
Point
Rel
Hum
%
Delta-T
°C
Wind Press
QNH
hPa
Press
MSL
hPa
Rain
since 9 am
mm
Dir
 
Spd
km/h
Gust
km/h
Spd
kts
Gust
kts
04/06:30pm 19.4 14.6 10.2 55 5.0 WSW 26 37 14 20 1016.9 1016.1 0.0
04/06:01pm 20.1 14.6 9.1 49 5.9 WSW 28 46 15 25 1016.9 1016.1 0.0
04/06:00pm 20.2 15.1 9.2 49 5.9 WSW 26 39 14 21 1016.9 1016.1 0.0
04/05:30pm 21.1 15.4 8.3 43 6.8 WSW 28 43 15 23 1016.7 1015.9 0.0
04/05:00pm 21.3 15.4 7.5 41 7.2 WSW 28 41 15 22 1016.6 1015.8 0.0
04/04:30pm 21.8 15.8 7.2 39 7.6 WSW 28 39 15 21 1016.6 1015.8 0.0
04/04:00pm 21.9 15.7 6.0 35 8.1 WSW 28 44 15 24 1017.0 1016.3 0.0
04/03:30pm 22.0 15.9 6.7 37 7.9 SW 28 39 15 21 1017.4 1016.7 0.0
04/03:00pm 22.1 16.4 6.9 37 7.9 SW 26 35 14 19 1017.6 1016.9 0.0
04/02:30pm 21.9 16.4 6.0 35 8.1 SW 24 35 13 19 1017.8 1017.1 0.0
04/02:00pm 21.5 16.4 7.6 40 7.3 SW 24 39 13 21 1017.9 1017.2 0.0
04/01:30pm 21.4 16.3 7.7 41 7.2 SW 24 35 13 19 1018.1 1017.3 0.0
04/01:00pm 21.3 16.9 7.3 40 7.3 WSW 20 30 11 16 1018.3 1017.5 0.0
04/12:30pm 20.3 16.1 7.6 44 6.6 WSW 19 30 10 16 1018.7 1017.9 0.0
04/12:00pm 20.1 16.7 7.8 45 6.4 WSW 15 22 8 12 1019.3 1018.5 0.0
04/11:30am 18.9 16.0 8.1 49 5.6 SSW 13 20 7 11 1019.6 1018.8 0.0
04/11:00am 17.9 14.2 8.0 52 5.1 SW 17 28 9 15 1020.0 1019.2 0.0
04/10:30am 17.2 14.0 8.5 56 4.5 SW 15 24 8 13 1020.0 1019.2 0.0
04/10:00am 17.0 13.4 8.3 56 4.5 SSW 17 26 9 14 1019.8 1019.0 0.0
04/09:30am 15.9 13.5 8.7 62 3.7 SW 11 15 6 8 1019.7 1018.9 0.0
04/09:00am 15.0 13.6 9.0 67 3.1 WSW 6 11 3 6 1019.6 1018.8 0.0
04/08:30am 14.3 13.1 9.7 74 2.4 SSW 6 7 3 4 1019.5 1018.7 0.0
04/08:00am 12.7 12.8 10.2 85 1.3 CALM 0 0 0 0 1019.2 1018.4 0.0
04/07:30am 10.5 10.3 9.1 91 0.7 CALM 0 0 0 0 1019.0 1018.2 0.0
04/07:00am 10.9 10.8 9.3 90 0.8 CALM 0 0 0 0 1018.7 1017.9 0.0
04/06:30am 11.7 11.6 9.6 87 1.1 CALM 0 0 0 0 1018.4 1017.6 0.0
04/06:00am 12.5 11.4 9.8 83 1.4 SSE 6 7 3 4 1018.3 1017.5 0.0
04/05:30am 13.1 11.8 9.8 80 1.7 S 7 11 4 6 1018.2 1017.4 0.0
04/05:00am 13.5 12.2 10.1 80 1.8 S 7 9 4 5 1018.1 1017.3 0.0
04/04:30am 13.5 12.3 10.3 81 1.7 S 7 11 4 6 1017.6 1016.9 0.0
04/04:00am 13.7 12.1 10.3 80 1.8 SSE 9 13 5 7 1017.6 1016.9 0.0
04/03:30am 13.9 11.9 10.3 79 1.9 S 11 17 6 9 1017.8 1017.1 0.0
04/03:00am 13.8 11.9 10.4 80 1.8 SSE 11 15 6 8 1018.2 1017.4 0.0
04/02:30am 13.8 12.2 10.2 79 1.9 SE 9 13 5 7 1018.5 1017.7 0.0
04/02:00am 14.0 12.8 10.2 78 2.0 SSE 7 11 4 6 1019.0 1018.2 0.0
04/01:30am 14.2 12.1 9.8 75 2.3 SSE 11 15 6 8 1018.8 1018.0 0.0
04/01:00am 14.4 12.8 8.7 68 2.9 SSE 7 17 4 9 1018.8 1018.0 0.0
04/12:30am 14.2 12.5 8.3 67 3.0 SE 7 13 4 7 1018.7 1017.9 0.0
04/12:00am 14.9 12.4 8.4 65 3.3 SSE 11 17 6 9 1018.8 1018.0 0.0
 
Date/Time
CDT
Temp
°C
App
Temp
°C
Dew
Point
Rel
Hum
%
Delta-T
°C
Wind Press
QNH
hPa
Press
MSL
hPa
Rain
since 9 am
mm
Dir
 
Spd
km/h
Gust
km/h
Spd
kts
Gust
kts
03/11:30pm 15.1 13.4 8.5 64 3.4 SSE 7 9 4 5 1018.9 1018.1 0.0
03/11:00pm 16.0 13.6 8.6 61 3.8 SSE 11 17 6 9 1018.9 1018.1 0.0
03/10:30pm 16.5 14.8 8.3 58 4.2 S 7 15 4 8 1018.9 1018.1 0.0
03/10:00pm 16.7 14.1 7.9 56 4.5 SSE 11 19 6 10 1018.6 1017.8 0.0
03/09:30pm 17.4 14.5 8.1 54 4.8 SSE 13 19 7 10 1018.4 1017.6 0.0
03/09:00pm 18.1 14.7 7.8 51 5.3 SE 15 26 8 14 1018.1 1017.3 0.0
03/08:30pm 18.6 13.8 7.3 47 5.8 SE 22 32 12 17 1017.5 1016.8 0.0
03/08:00pm 19.9 15.3 6.5 41 6.8 SE 20 33 11 18 1017.1 1016.4 0.0
03/07:30pm 20.9 16.6 6.9 40 7.2 SE 19 28 10 15 1016.8 1016.0 0.0
03/07:00pm 22.0 17.8 7.5 39 7.6 ESE 19 30 10 16 1016.6 1015.8 0.0
03/06:30pm 23.4 19.1 7.8 36 8.3 SE 20 30 11 16 1016.2 1015.4 0.0
03/06:00pm 25.1 21.1 8.3 34 9.1 SE 19 28 10 15 1015.8 1015.0 0.0
03/05:30pm 25.9 22.0 8.8 34 9.4 ESE 19 28 10 15 1015.7 1014.9 0.0
03/05:00pm 26.8 24.0 8.4 31 10.1 SW 13 24 7 13 1015.7 1014.9 0.0
03/04:30pm 27.3 24.6 5.5 25 11.4 ENE 9 20 5 11 1015.5 1014.7 0.0
03/04:00pm 27.7 24.5 5.0 23 11.8 WNW 11 19 6 10 1015.8 1015.0 0.0
03/03:30pm 27.4 23.7 4.4 23 11.8 WNW 13 19 7 10 1016.0 1015.2 0.0
03/03:00pm 26.7 23.5 5.3 25 11.1 W 11 20 6 11 1016.4 1015.6 0.0
03/02:30pm 26.2 23.0 5.0 25 10.9 WNW 11 19 6 10 1016.8 1016.0 0.0
03/02:00pm 26.2 23.9 4.7 25 11.0 WNW 6 17 3 9 1016.9 1016.1 0.0
03/01:30pm 25.0 21.4 5.0 27 10.2 SSW 13 19 7 10 1017.3 1016.6 0.0
03/01:00pm 25.4 23.3 6.0 28 10.1 SSE 6 11 3 6 1017.5 1016.8 0.0
03/12:30pm 24.4 22.2 7.7 34 8.9 NNW 9 13 5 7 1018.2 1017.4 0.0
03/12:00pm 23.2 21.5 8.3 38 8.0 NE 7 13 4 7 1018.8 1018.0 0.0
03/11:30am 22.5 20.9 8.7 41 7.4 E 7 13 4 7 1019.1 1018.3 0.0
03/11:00am 21.3 19.8 9.0 45 6.6 ESE 7 9 4 5 1019.1 1018.3 0.0
03/10:30am 20.7 18.7 8.7 46 6.4 ESE 9 13 5 7 1019.1 1018.3 0.0
03/10:00am 19.4 17.1 9.1 51 5.5 ESE 11 15 6 8 1018.8 1018.0 0.0
03/09:30am 19.1 17.2 8.9 51 5.4 ESE 9 13 5 7 1018.6 1017.8 0.0
03/09:00am 18.3 15.4 8.3 52 5.2 SE 13 19 7 10 1018.5 1017.7 0.0
03/08:30am 17.9 15.7 8.0 52 5.1 SE 9 15 5 8 1017.8 1017.1 0.0
03/08:00am 15.2 15.0 9.2 67 3.1 CALM 0 0 0 0 1017.8 1017.1 0.0
03/07:30am 13.9 13.0 9.2 73 2.4 SSW 4 7 2 4 1017.4 1016.7 0.0
03/07:00am 14.3 12.1 9.5 73 2.5 SE 11 19 6 10 1017.0 1016.3 0.0
03/06:30am 14.4 12.1 10.6 78 2.0 SE 13 17 7 9 1016.6 1015.8 0.0
03/06:00am 14.3 13.1 11.5 83 1.5 SE 9 13 5 7 1016.3 1015.5 0.0
03/05:30am 14.5 13.9 11.6 83 1.6 ESE 6 13 3 7 1016.1 1015.3 0.0
03/05:00am 14.6 13.4 11.5 82 1.7 SE 9 11 5 6 1016.1 1015.3 0.0
03/04:30am 15.1 14.3 11.8 81 1.8 ESE 7 9 4 5 1016.2 1015.4 0.0
03/04:00am 15.6 15.1 12.2 80 1.9 ESE 6 9 3 5 1016.1 1015.3 0.0
03/03:30am 16.1 15.4 11.9 76 2.3 ESE 7 11 4 6 1016.1 1015.3 0.0
03/03:00am 16.7 16.6 12.2 75 2.5 ENE 4 7 2 4 1016.1 1015.3 0.0
03/02:30am 17.2 15.7 11.8 70 3.0 SE 11 17 6 9 1016.3 1015.5 0.0
03/02:00am 17.9 15.6 10.3 61 4.1 SE 13 19 7 10 1016.2 1015.4 0.0
03/01:30am 18.7 16.2 8.4 51 5.4 ESE 11 17 6 9 1016.0 1015.2 0.0
03/01:00am 19.0 17.7 7.8 48 5.8 NNE 4 9 2 5 1016.4 1015.6 0.0
03/12:30am 19.2 19.0 9.0 51 5.4 CALM 0 0 0 0 1016.2 1015.4 0.0
03/12:00am 19.6 17.9 7.6 45 6.2 SSE 6 9 3 5 1016.2 1015.4 0.0
 
Date/Time
CDT
Temp
°C
App
Temp
°C
Dew
Point
Rel
Hum
%
Delta-T
°C
Wind Press
QNH
hPa
Press
MSL
hPa
Rain
since 9 am
mm
Dir
 
Spd
km/h
Gust
km/h
Spd
kts
Gust
kts
02/11:30pm 19.6 18.3 7.6 45 6.2 SE 4 7 2 4 1016.3 1015.5 0.0
02/11:00pm 20.6 18.7 6.8 40 7.1 WSW 6 9 3 5 1016.6 1015.8 0.0
02/10:30pm 20.6 19.0 6.2 39 7.3 W 4 6 2 3 1016.7 1015.9 0.0
02/10:00pm 20.3 18.2 5.8 38 7.3 W 6 7 3 4 1016.4 1015.6 0.0
02/09:30pm 21.5 18.5 4.2 32 8.5 S 9 13 5 7 1016.0 1015.2 0.0
02/09:00pm 21.8 19.3 5.0 33 8.4 SSW 7 13 4 7 1015.9 1015.1 0.0
02/08:30pm 22.6 18.7 3.3 28 9.4 SW 13 19 7 10 1015.3 1014.5 0.0
02/08:00pm 23.1 19.7 3.9 28 9.5 SW 11 13 6 7 1014.8 1014.0 0.0
02/07:30pm 23.9 20.4 3.4 26 10.1 SW 11 17 6 9 1014.5 1013.7 0.0
02/07:00pm 24.6 20.6 2.7 24 10.7 SW 13 19 7 10 1014.5 1013.7 0.0
02/06:30pm 25.1 20.3 2.7 23 11.0 SW 17 22 9 12 1013.9 1013.2 0.0
02/06:00pm 25.9 21.0 2.2 21 11.6 SW 17 24 9 13 1013.5 1012.7 0.0
02/05:30pm 26.2 21.3 1.7 20 11.9 SW 17 22 9 12 1013.1 1012.3 0.0
02/05:00pm 26.9 22.6 1.3 19 12.4 SSW 13 17 7 9 1013.0 1012.2 0.0
02/04:30pm 26.6 23.5 1.1 19 12.3 S 7 17 4 9 1013.1 1012.3 0.0
02/04:00pm 26.8 23.3 1.5 19 12.3 SSW 9 17 5 9 1013.4 1012.6 0.0
02/03:30pm 26.5 23.6 1.2 19 12.2 N 6 13 3 7 1013.5 1012.7 0.0
02/03:00pm 26.5 23.2 2.3 21 11.9 S 9 13 5 7 1013.6 1012.8 0.0
02/02:30pm 26.1 23.2 2.6 21 11.6 NE 7 17 4 9 1013.8 1013.0 0.0
02/02:00pm 25.8 21.7 2.3 21 11.5 NE 13 26 7 14 1013.9 1013.2 0.0
02/01:30pm 24.3 20.6 2.5 24 10.6 ESE 11 19 6 10 1014.5 1013.7 0.0
02/01:00pm 24.1 20.7 3.8 26 10.1 ENE 11 19 6 10 1015.0 1014.2 0.0
02/12:30pm 23.6 19.2 4.5 29 9.6 ENE 17 24 9 13 1015.0 1014.2 0.0
02/12:00pm 22.8 18.5 5.2 32 8.9 ENE 17 24 9 13 1015.7 1014.9 0.0
02/11:30am 20.7 16.0 5.3 36 7.7 ENE 19 28 10 15 1016.3 1015.5 0.0
02/11:00am 19.9 15.3 5.7 39 7.1 ENE 19 24 10 13 1016.7 1015.9 0.0
02/10:30am 19.4 14.9 6.1 42 6.7 NE 19 28 10 15 1016.9 1016.1 0.0
02/10:00am 18.5 14.4 6.4 45 6.1 NE 17 26 9 14 1017.1 1016.4 0.0
02/09:30am 17.3 12.8 6.0 47 5.6 NE 19 32 10 17 1016.7 1015.9 0.0
02/09:00am 16.5 12.3 5.9 49 5.2 ENE 17 32 9 17 1016.5 1015.7 0.0
02/08:30am 15.8 12.6 6.7 54 4.5 E 13 20 7 11 1017.1 1016.4 0.0
02/08:00am 15.1 11.9 6.8 57 4.1 E 13 20 7 11 1016.6 1015.8 0.0
02/07:30am 14.8 11.9 6.7 58 4.0 E 11 17 6 9 1016.2 1015.4 0.0
02/07:00am 14.2 11.1 7.1 62 3.5 E 13 20 7 11 1016.1 1015.3 0.0
02/06:30am 14.2 11.1 7.4 63 3.4 E 13 20 7 11 1015.8 1015.0 0.0
02/06:00am 13.7 10.7 7.9 68 2.9 E 13 20 7 11 1015.5 1014.7 0.0
02/05:30am 13.4 10.1 8.2 71 2.6 ESE 15 24 8 13 1015.1 1014.3 0.0
02/05:00am 13.3 9.8 8.6 73 2.4 ESE 17 24 9 13 1014.9 1014.1 0.0
02/04:30am 13.1 10.0 9.0 76 2.1 ESE 15 28 8 15 1015.1 1014.3 0.0
02/04:00am 13.5 10.4 8.8 73 2.4 SE 15 28 8 15 1015.2 1014.4 0.0
02/03:30am 13.7 9.6 8.6 71 2.6 SE 20 32 11 17 1015.1 1014.3 0.0
02/03:00am 13.7 8.8 8.6 71 2.6 SE 24 35 13 19 1015.1 1014.3 0.0
02/02:30am 13.7 8.9 8.8 72 2.5 SE 24 41 13 22 1015.3 1014.5 0.0
02/02:00am 13.6 8.9 9.3 75 2.2 SE 24 41 13 22 1015.6 1014.8 0.0
02/01:30am 13.7 9.1 9.5 76 2.2 SE 24 35 13 19 1015.9 1015.1 0.0
02/01:00am 13.7 8.7 9.7 77 2.1 SE 26 39 14 21 1016.4 1015.6 0.0
02/12:30am 14.2 9.5 9.2 72 2.6 SE 24 39 13 21 1016.5 1015.7 0.0
02/12:00am 14.3 9.6 9.3 72 2.6 SE 24 32 13 17 1016.8 1016.0 0.0
 
Date/Time
CDT
Temp
°C
App
Temp
°C
Dew
Point
Rel
Hum
%
Delta-T
°C
Wind Press
QNH
hPa
Press
MSL
hPa
Rain
since 9 am
mm
Dir
 
Spd
km/h
Gust
km/h
Spd
kts
Gust
kts
01/11:30pm 14.3 10.4 9.3 72 2.6 SE 20 32 11 17 1016.8 1016.0 0.0
01/11:00pm 14.6 9.8 9.0 69 2.9 SE 24 37 13 20 1016.6 1015.8 0.0
01/10:30pm 14.8 10.5 9.2 69 2.9 SE 22 32 12 17 1017.0 1016.3 0.0
01/10:00pm 15.1 12.4 9.1 67 3.1 SSE 13 20 7 11 1017.3 1016.6 0.0
01/09:30pm 15.7 13.1 9.2 65 3.4 SSE 13 20 7 11 1017.3 1016.6 0.0
01/09:00pm 16.5 14.2 9.0 61 3.9 S 11 20 6 11 1016.9 1016.1 0.0
01/08:30pm 17.3 14.2 8.9 57 4.4 SSE 15 22 8 12 1016.2 1015.4 0.0
01/08:00pm 18.4 15.6 8.7 53 5.1 SE 13 22 7 12 1015.6 1014.8 0.0
01/07:30pm 19.9 15.3 8.1 46 6.2 SE 22 30 12 16 1015.7 1014.9 0.0
01/07:00pm 21.1 16.2 7.0 40 7.3 SSE 22 32 12 17 1015.7 1014.9 0.0

Other Formats:

Comma delimited format used in spreadsheet applications
http://www.bom.gov.au/fwo/IDS60801/IDS60801.94681.axf

JavaScript Object Notation format (JSON) in row-major order
http://www.bom.gov.au/fwo/IDS60801/IDS60801.94681.json